sensor_id;sensor_type;location;lat;lon;timestamp;P1;durP1;ratioP1;P2;durP2;ratioP2
45382;SDS011;42455;51.660;5.824;2022-11-11T00:01:27;7.0;;;5.0;;
45382;SDS011;42455;51.660;5.824;2022-11-11T00:06:33;7.0;;;5.0;;
45382;SDS011;42455;51.660;5.824;2022-11-11T00:11:39;6.0;;;5.0;;
45382;SDS011;42455;51.660;5.824;2022-11-11T00:16:45;7.0;;;5.0;;
45382;SDS011;42455;51.660;5.824;2022-11-11T00:21:50;7.0;;;4.5;;
45382;SDS011;42455;51.660;5.824;2022-11-11T00:26:57;6.0;;;5.0;;
45382;SDS011;42455;51.660;5.824;2022-11-11T00:32:03;7.0;;;5.0;;
45382;SDS011;42455;51.660;5.824;2022-11-11T00:37:09;8.0;;;5.0;;
45382;SDS011;42455;51.660;5.824;2022-11-11T00:47:21;8.5;;;6.0;;
45382;SDS011;42455;51.660;5.824;2022-11-11T00:52:28;9.0;;;6.0;;
45382;SDS011;42455;51.660;5.824;2022-11-11T00:57:34;9.5;;;7.0;;
45382;SDS011;42455;51.660;5.824;2022-11-11T01:02:40;11.0;;;8.0;;
45382;SDS011;42455;51.660;5.824;2022-11-11T01:07:47;9.5;;;8.0;;
45382;SDS011;42455;51.660;5.824;2022-11-11T01:12:52;11.5;;;9.0;;
45382;SDS011;42455;51.660;5.824;2022-11-11T01:17:58;10.0;;;8.0;;
45382;SDS011;42455;51.660;5.824;2022-11-11T01:23:04;13.0;;;10.0;;
45382;SDS011;42455;51.660;5.824;2022-11-11T01:28:09;11.0;;;10.0;;
45382;SDS011;42455;51.660;5.824;2022-11-11T01:33:14;11.0;;;10.0;;
45382;SDS011;42455;51.660;5.824;2022-11-11T01:38:21;14.0;;;11.0;;
45382;SDS011;42455;51.660;5.824;2022-11-11T01:43:27;12.0;;;10.0;;
45382;SDS011;42455;51.660;5.824;2022-11-11T01:48:34;12.0;;;11.0;;
45382;SDS011;42455;51.660;5.824;2022-11-11T01:53:39;12.0;;;11.0;;
45382;SDS011;42455;51.660;5.824;2022-11-11T01:58:45;14.0;;;11.5;;
45382;SDS011;42455;51.660;5.824;2022-11-11T02:03:52;13.0;;;11.0;;
45382;SDS011;42455;51.660;5.824;2022-11-11T02:08:58;13.0;;;12.0;;
45382;SDS011;42455;51.660;5.824;2022-11-11T02:14:04;13.0;;;12.0;;
45382;SDS011;42455;51.660;5.824;2022-11-11T02:19:10;14.0;;;12.0;;
45382;SDS011;42455;51.660;5.824;2022-11-11T02:24:17;13.0;;;12.0;;
45382;SDS011;42455;51.660;5.824;2022-11-11T02:29:23;13.0;;;12.0;;
45382;SDS011;42455;51.660;5.824;2022-11-11T02:34:29;14.0;;;12.0;;
45382;SDS011;42455;51.660;5.824;2022-11-11T02:39:36;14.0;;;13.0;;
45382;SDS011;42455;51.660;5.824;2022-11-11T02:44:41;14.0;;;13.0;;
45382;SDS011;42455;51.660;5.824;2022-11-11T02:49:48;15.0;;;13.0;;
45382;SDS011;42455;51.660;5.824;2022-11-11T02:54:54;16.0;;;13.0;;
45382;SDS011;42455;51.660;5.824;2022-11-11T03:00:00;15.0;;;13.0;;
45382;SDS011;42455;51.660;5.824;2022-11-11T03:05:06;15.0;;;13.0;;
45382;SDS011;42455;51.660;5.824;2022-11-11T03:10:12;15.0;;;13.0;;
45382;SDS011;42455;51.660;5.824;2022-11-11T03:15:19;14.0;;;13.0;;
45382;SDS011;42455;51.660;5.824;2022-11-11T03:20:24;15.5;;;13.0;;
45382;SDS011;42455;51.660;5.824;2022-11-11T03:25:30;14.0;;;12.0;;
45382;SDS011;42455;51.660;5.824;2022-11-11T03:30:37;15.0;;;13.0;;
45382;SDS011;42455;51.660;5.824;2022-11-11T03:35:42;14.0;;;13.0;;
45382;SDS011;42455;51.660;5.824;2022-11-11T03:40:48;15.0;;;13.0;;
45382;SDS011;42455;51.660;5.824;2022-11-11T03:45:54;16.0;;;14.0;;
45382;SDS011;42455;51.660;5.824;2022-11-11T03:51:00;17.0;;;15.0;;
45382;SDS011;42455;51.660;5.824;2022-11-11T03:56:06;18.0;;;16.0;;
45382;SDS011;42455;51.660;5.824;2022-11-11T04:01:12;20.0;;;18.0;;
45382;SDS011;42455;51.660;5.824;2022-11-11T04:06:19;20.0;;;18.0;;
45382;SDS011;42455;51.660;5.824;2022-11-11T04:11:27;21.0;;;18.0;;
45382;SDS011;42455;51.660;5.824;2022-11-11T04:16:31;21.0;;;19.0;;
45382;SDS011;42455;51.660;5.824;2022-11-11T04:21:37;22.0;;;19.0;;
45382;SDS011;42455;51.660;5.824;2022-11-11T04:26:43;22.0;;;19.0;;
45382;SDS011;42455;51.660;5.824;2022-11-11T04:31:50;22.0;;;20.0;;
45382;SDS011;42455;51.660;5.824;2022-11-11T04:36:56;22.0;;;20.0;;
45382;SDS011;42455;51.660;5.824;2022-11-11T04:42:02;23.0;;;20.0;;
45382;SDS011;42455;51.660;5.824;2022-11-11T04:47:08;24.0;;;21.0;;
45382;SDS011;42455;51.660;5.824;2022-11-11T04:52:15;22.0;;;20.0;;
45382;SDS011;42455;51.660;5.824;2022-11-11T04:57:21;22.0;;;19.0;;
45382;SDS011;42455;51.660;5.824;2022-11-11T05:02:27;20.0;;;18.0;;
45382;SDS011;42455;51.660;5.824;2022-11-11T05:07:33;19.0;;;17.0;;
45382;SDS011;42455;51.660;5.824;2022-11-11T05:12:39;19.0;;;17.0;;
45382;SDS011;42455;51.660;5.824;2022-11-11T05:17:46;17.0;;;15.0;;
45382;SDS011;42455;51.660;5.824;2022-11-11T05:22:51;16.0;;;14.0;;
45382;SDS011;42455;51.660;5.824;2022-11-11T05:27:57;15.0;;;14.0;;
45382;SDS011;42455;51.660;5.824;2022-11-11T05:33:02;15.0;;;13.0;;
45382;SDS011;42455;51.660;5.824;2022-11-11T05:38:09;15.0;;;14.0;;
45382;SDS011;42455;51.660;5.824;2022-11-11T05:43:15;14.0;;;12.0;;
45382;SDS011;42455;51.660;5.824;2022-11-11T05:48:21;13.0;;;12.0;;
45382;SDS011;42455;51.660;5.824;2022-11-11T05:53:27;13.0;;;12.0;;
45382;SDS011;42455;51.660;5.824;2022-11-11T05:58:33;13.0;;;11.0;;
45382;SDS011;42455;51.660;5.824;2022-11-11T06:03:39;14.0;;;12.0;;
45382;SDS011;42455;51.660;5.824;2022-11-11T06:08:46;14.0;;;11.0;;
45382;SDS011;42455;51.660;5.824;2022-11-11T06:13:52;13.0;;;11.0;;
45382;SDS011;42455;51.660;5.824;2022-11-11T06:18:58;12.5;;;11.0;;
45382;SDS011;42455;51.660;5.824;2022-11-11T06:24:05;14.0;;;11.0;;
45382;SDS011;42455;51.660;5.824;2022-11-11T06:29:11;13.0;;;10.0;;
45382;SDS011;42455;51.660;5.824;2022-11-11T06:34:17;12.0;;;10.0;;
45382;SDS011;42455;51.660;5.824;2022-11-11T06:39:23;13.0;;;10.0;;
45382;SDS011;42455;51.660;5.824;2022-11-11T06:44:29;12.0;;;9.0;;
45382;SDS011;42455;51.660;5.824;2022-11-11T06:49:35;10.0;;;8.5;;
45382;SDS011;42455;51.660;5.824;2022-11-11T06:54:42;9.0;;;8.0;;
45382;SDS011;42455;51.660;5.824;2022-11-11T06:59:48;11.0;;;8.0;;
45382;SDS011;42455;51.660;5.824;2022-11-11T07:04:54;9.0;;;8.0;;
45382;SDS011;42455;51.660;5.824;2022-11-11T07:10:00;9.0;;;8.0;;
45382;SDS011;42455;51.660;5.824;2022-11-11T07:15:07;8.0;;;7.0;;
45382;SDS011;42455;51.660;5.824;2022-11-11T07:20:12;8.0;;;7.0;;
45382;SDS011;42455;51.660;5.824;2022-11-11T07:25:18;8.0;;;7.0;;
45382;SDS011;42455;51.660;5.824;2022-11-11T07:30:23;8.0;;;7.0;;
45382;SDS011;42455;51.660;5.824;2022-11-11T07:35:29;7.0;;;6.5;;
45382;SDS011;42455;51.660;5.824;2022-11-11T07:40:36;9.5;;;6.5;;
45382;SDS011;42455;51.660;5.824;2022-11-11T07:45:42;7.0;;;6.0;;
45382;SDS011;42455;51.660;5.824;2022-11-11T07:50:50;8.5;;;6.0;;
45382;SDS011;42455;51.660;5.824;2022-11-11T07:55:54;7.5;;;6.0;;
45382;SDS011;42455;51.660;5.824;2022-11-11T08:01:00;6.0;;;6.0;;
45382;SDS011;42455;51.660;5.824;2022-11-11T08:06:07;6.0;;;6.0;;
45382;SDS011;42455;51.660;5.824;2022-11-11T08:11:13;6.0;;;5.0;;
45382;SDS011;42455;51.660;5.824;2022-11-11T08:16:19;7.0;;;5.0;;
45382;SDS011;42455;51.660;5.824;2022-11-11T08:21:25;6.0;;;6.0;;
45382;SDS011;42455;51.660;5.824;2022-11-11T08:26:31;6.0;;;5.0;;
45382;SDS011;42455;51.660;5.824;2022-11-11T08:31:38;6.0;;;5.0;;
45382;SDS011;42455;51.660;5.824;2022-11-11T08:36:44;5.0;;;5.0;;
45382;SDS011;42455;51.660;5.824;2022-11-11T08:41:50;5.0;;;4.0;;
45382;SDS011;42455;51.660;5.824;2022-11-11T08:46:56;5.0;;;4.0;;
45382;SDS011;42455;51.660;5.824;2022-11-11T08:52:02;5.0;;;4.0;;
45382;SDS011;42455;51.660;5.824;2022-11-11T08:57:09;5.0;;;4.0;;
45382;SDS011;42455;51.660;5.824;2022-11-11T09:02:15;5.0;;;4.0;;
45382;SDS011;42455;51.660;5.824;2022-11-11T09:07:21;5.0;;;4.0;;
45382;SDS011;42455;51.660;5.824;2022-11-11T09:12:27;5.0;;;4.0;;
45382;SDS011;42455;51.660;5.824;2022-11-11T09:17:32;5.0;;;4.0;;
45382;SDS011;42455;51.660;5.824;2022-11-11T09:22:41;5.0;;;4.0;;
45382;SDS011;42455;51.660;5.824;2022-11-11T09:27:52;5.0;;;4.0;;
45382;SDS011;42455;51.660;5.824;2022-11-11T09:32:50;6.0;;;4.0;;
45382;SDS011;42455;51.660;5.824;2022-11-11T09:37:57;6.0;;;4.0;;
45382;SDS011;42455;51.660;5.824;2022-11-11T09:43:34;5.0;;;4.0;;
45382;SDS011;42455;51.660;5.824;2022-11-11T09:48:49;5.0;;;4.0;;
45382;SDS011;42455;51.660;5.824;2022-11-11T09:53:18;4.0;;;4.0;;
45382;SDS011;42455;51.660;5.824;2022-11-11T09:58:27;4.0;;;4.0;;
45382;SDS011;42455;51.660;5.824;2022-11-11T10:03:27;4.0;;;4.0;;
45382;SDS011;42455;51.660;5.824;2022-11-11T10:08:39;4.5;;;4.0;;
45382;SDS011;42455;51.660;5.824;2022-11-11T10:13:40;5.0;;;4.0;;
45382;SDS011;42455;51.660;5.824;2022-11-11T10:19:34;4.0;;;4.0;;
45382;SDS011;42455;51.660;5.824;2022-11-11T10:23:54;5.0;;;4.0;;
45382;SDS011;42455;51.660;5.824;2022-11-11T10:29:09;4.0;;;4.0;;
45382;SDS011;42455;51.660;5.824;2022-11-11T10:34:10;5.0;;;4.0;;
45382;SDS011;42455;51.660;5.824;2022-11-11T10:39:23;5.0;;;4.0;;
45382;SDS011;42455;51.660;5.824;2022-11-11T10:44:23;4.0;;;3.5;;
45382;SDS011;42455;51.660;5.824;2022-11-11T10:49:29;4.0;;;4.0;;
45382;SDS011;42455;51.660;5.824;2022-11-11T10:54:34;4.0;;;4.0;;
45382;SDS011;42455;51.660;5.824;2022-11-11T10:59:38;5.0;;;3.0;;
45382;SDS011;42455;51.660;5.824;2022-11-11T11:04:43;4.0;;;3.0;;
45382;SDS011;42455;51.660;5.824;2022-11-11T11:09:49;4.0;;;3.0;;
45382;SDS011;42455;51.660;5.824;2022-11-11T11:14:55;5.0;;;3.0;;
45382;SDS011;42455;51.660;5.824;2022-11-11T11:20:07;3.0;;;3.0;;
45382;SDS011;42455;51.660;5.824;2022-11-11T11:25:09;5.5;;;3.0;;
45382;SDS011;42455;51.660;5.824;2022-11-11T11:30:18;3.0;;;3.0;;
45382;SDS011;42455;51.660;5.824;2022-11-11T11:35:29;3.0;;;3.0;;
45382;SDS011;42455;51.660;5.824;2022-11-11T11:40:23;3.0;;;2.0;;
45382;SDS011;42455;51.660;5.824;2022-11-11T11:45:30;4.5;;;3.0;;
45382;SDS011;42455;51.660;5.824;2022-11-11T11:50:55;6.0;;;4.0;;
45382;SDS011;42455;51.660;5.824;2022-11-11T11:55:45;4.0;;;3.0;;
45382;SDS011;42455;51.660;5.824;2022-11-11T12:01:00;6.0;;;5.0;;
45382;SDS011;42455;51.660;5.824;2022-11-11T12:06:35;5.0;;;3.0;;
45382;SDS011;42455;51.660;5.824;2022-11-11T12:12:05;6.0;;;3.0;;
45382;SDS011;42455;51.660;5.824;2022-11-11T12:17:41;4.0;;;3.0;;
45382;SDS011;42455;51.660;5.824;2022-11-11T12:22:24;4.0;;;3.0;;
45382;SDS011;42455;51.660;5.824;2022-11-11T12:27:33;2.0;;;2.0;;
45382;SDS011;42455;51.660;5.824;2022-11-11T12:31:33;4.0;;;2.0;;
45382;SDS011;42455;51.660;5.824;2022-11-11T12:37:40;3.0;;;2.0;;
45382;SDS011;42455;51.660;5.824;2022-11-11T12:43:01;4.0;;;3.0;;
45382;SDS011;42455;51.660;5.824;2022-11-11T12:46:47;7.0;;;4.0;;
45382;SDS011;42455;51.660;5.824;2022-11-11T12:52:37;2.0;;;2.0;;
45382;SDS011;42455;51.660;5.824;2022-11-11T12:57:58;3.0;;;2.0;;
45382;SDS011;42455;51.660;5.824;2022-11-11T13:02:25;2.0;;;2.0;;
45382;SDS011;42455;51.660;5.824;2022-11-11T13:08:04;2.0;;;2.0;;
45382;SDS011;42455;51.660;5.824;2022-11-11T13:13:26;3.0;;;2.0;;
45382;SDS011;42455;51.660;5.824;2022-11-11T13:17:22;2.0;;;1.0;;
45382;SDS011;42455;51.660;5.824;2022-11-11T13:22:27;2.0;;;1.0;;
45382;SDS011;42455;51.660;5.824;2022-11-11T13:27:38;3.0;;;1.5;;
45382;SDS011;42455;51.660;5.824;2022-11-11T13:32:43;3.0;;;2.0;;
45382;SDS011;42455;51.660;5.824;2022-11-11T13:37:44;3.0;;;2.0;;
45382;SDS011;42455;51.660;5.824;2022-11-11T13:42:51;3.0;;;2.0;;
45382;SDS011;42455;51.660;5.824;2022-11-11T13:47:57;2.0;;;1.0;;
45382;SDS011;42455;51.660;5.824;2022-11-11T13:53:05;3.0;;;2.0;;
45382;SDS011;42455;51.660;5.824;2022-11-11T13:58:16;2.0;;;2.0;;
45382;SDS011;42455;51.660;5.824;2022-11-11T14:03:35;3.0;;;2.0;;
45382;SDS011;42455;51.660;5.824;2022-11-11T14:08:50;3.0;;;2.0;;
45382;SDS011;42455;51.660;5.824;2022-11-11T14:13:41;3.0;;;2.0;;
45382;SDS011;42455;51.660;5.824;2022-11-11T14:18:38;2.0;;;2.0;;
45382;SDS011;42455;51.660;5.824;2022-11-11T14:23:40;3.0;;;2.0;;
45382;SDS011;42455;51.660;5.824;2022-11-11T14:28:49;3.0;;;2.0;;
45382;SDS011;42455;51.660;5.824;2022-11-11T14:34:05;3.0;;;2.0;;
45382;SDS011;42455;51.660;5.824;2022-11-11T14:39:23;4.0;;;2.0;;
45382;SDS011;42455;51.660;5.824;2022-11-11T14:44:39;5.0;;;2.0;;
45382;SDS011;42455;51.660;5.824;2022-11-11T14:49:15;6.5;;;2.0;;
45382;SDS011;42455;51.660;5.824;2022-11-11T14:54:19;4.0;;;2.0;;
45382;SDS011;42455;51.660;5.824;2022-11-11T14:59:24;4.0;;;1.0;;
45382;SDS011;42455;51.660;5.824;2022-11-11T15:04:37;3.5;;;1.0;;
45382;SDS011;42455;51.660;5.824;2022-11-11T15:10:19;4.0;;;2.0;;
45382;SDS011;42455;51.660;5.824;2022-11-11T15:15:10;3.0;;;1.0;;
45382;SDS011;42455;51.660;5.824;2022-11-11T15:21:18;3.0;;;2.0;;
45382;SDS011;42455;51.660;5.824;2022-11-11T15:26:00;4.0;;;4.0;;
45382;SDS011;42455;51.660;5.824;2022-11-11T15:30:55;3.5;;;3.0;;
45382;SDS011;42455;51.660;5.824;2022-11-11T15:35:48;3.0;;;3.0;;
45382;SDS011;42455;51.660;5.824;2022-11-11T15:40:18;16.0;;;14.0;;
45382;SDS011;42455;51.660;5.824;2022-11-11T15:40:18;16.0;;;14.0;;
45382;SDS011;42455;51.660;5.824;2022-11-11T15:45:22;10.0;;;9.0;;
45382;SDS011;42455;51.660;5.824;2022-11-11T15:50:28;4.0;;;3.0;;
45382;SDS011;42455;51.660;5.824;2022-11-11T15:55:31;6.0;;;5.0;;
45382;SDS011;42455;51.660;5.824;2022-11-11T16:00:36;6.0;;;6.0;;
45382;SDS011;42455;51.660;5.824;2022-11-11T16:05:42;5.0;;;4.0;;
45382;SDS011;42455;51.660;5.824;2022-11-11T16:10:51;4.0;;;4.0;;
45382;SDS011;42455;51.660;5.824;2022-11-11T16:15:57;5.0;;;3.0;;
45382;SDS011;42455;51.660;5.824;2022-11-11T16:21:02;4.0;;;3.0;;
45382;SDS011;42455;51.660;5.824;2022-11-11T16:26:07;4.0;;;3.0;;
45382;SDS011;42455;51.660;5.824;2022-11-11T16:31:20;4.0;;;3.0;;
45382;SDS011;42455;51.660;5.824;2022-11-11T16:36:20;4.0;;;3.0;;
45382;SDS011;42455;51.660;5.824;2022-11-11T16:41:29;5.0;;;4.0;;
45382;SDS011;42455;51.660;5.824;2022-11-11T16:46:40;6.0;;;5.0;;
45382;SDS011;42455;51.660;5.824;2022-11-11T16:51:44;6.0;;;5.0;;
45382;SDS011;42455;51.660;5.824;2022-11-11T16:56:45;7.0;;;6.0;;
45382;SDS011;42455;51.660;5.824;2022-11-11T17:01:51;5.0;;;5.0;;
45382;SDS011;42455;51.660;5.824;2022-11-11T17:06:57;5.0;;;4.0;;
45382;SDS011;42455;51.660;5.824;2022-11-11T17:12:03;5.0;;;5.0;;
45382;SDS011;42455;51.660;5.824;2022-11-11T17:17:09;6.5;;;5.0;;
45382;SDS011;42455;51.660;5.824;2022-11-11T17:22:15;6.0;;;5.5;;
45382;SDS011;42455;51.660;5.824;2022-11-11T17:27:20;9.0;;;8.0;;
45382;SDS011;42455;51.660;5.824;2022-11-11T17:32:26;12.0;;;10.0;;
45382;SDS011;42455;51.660;5.824;2022-11-11T17:37:32;7.5;;;7.0;;
45382;SDS011;42455;51.660;5.824;2022-11-11T17:42:37;7.0;;;6.0;;
45382;SDS011;42455;51.660;5.824;2022-11-11T17:47:44;7.5;;;6.5;;
45382;SDS011;42455;51.660;5.824;2022-11-11T17:52:53;7.0;;;6.5;;
45382;SDS011;42455;51.660;5.824;2022-11-11T17:57:58;7.0;;;6.0;;
45382;SDS011;42455;51.660;5.824;2022-11-11T18:03:02;7.0;;;6.0;;
45382;SDS011;42455;51.660;5.824;2022-11-11T18:08:09;13.0;;;8.0;;
45382;SDS011;42455;51.660;5.824;2022-11-11T18:13:15;11.0;;;8.0;;
45382;SDS011;42455;51.660;5.824;2022-11-11T18:18:21;16.0;;;11.0;;
45382;SDS011;42455;51.660;5.824;2022-11-11T18:23:29;9.0;;;8.0;;
45382;SDS011;42455;51.660;5.824;2022-11-11T18:28:34;12.0;;;11.0;;
45382;SDS011;42455;51.660;5.824;2022-11-11T18:33:40;18.0;;;16.5;;
45382;SDS011;42455;51.660;5.824;2022-11-11T18:38:46;8.0;;;7.5;;
45382;SDS011;42455;51.660;5.824;2022-11-11T18:48:59;10.0;;;8.0;;
45382;SDS011;42455;51.660;5.824;2022-11-11T18:59:11;12.0;;;10.0;;
45382;SDS011;42455;51.660;5.824;2022-11-11T19:04:16;9.0;;;8.0;;
45382;SDS011;42455;51.660;5.824;2022-11-11T19:09:28;10.0;;;9.0;;
45382;SDS011;42455;51.660;5.824;2022-11-11T19:14:41;10.0;;;9.0;;
45382;SDS011;42455;51.660;5.824;2022-11-11T19:19:53;9.0;;;8.0;;
45382;SDS011;42455;51.660;5.824;2022-11-11T19:25:06;21.0;;;19.0;;
45382;SDS011;42455;51.660;5.824;2022-11-11T19:30:17;20.0;;;18.0;;
45382;SDS011;42455;51.660;5.824;2022-11-11T19:35:29;28.0;;;25.0;;
45382;SDS011;42455;51.660;5.824;2022-11-11T19:40:35;17.0;;;15.0;;
45382;SDS011;42455;51.660;5.824;2022-11-11T19:45:41;11.0;;;10.0;;
45382;SDS011;42455;51.660;5.824;2022-11-11T19:50:47;13.0;;;11.0;;
45382;SDS011;42455;51.660;5.824;2022-11-11T19:55:55;14.0;;;12.0;;
45382;SDS011;42455;51.660;5.824;2022-11-11T20:01:05;12.0;;;11.0;;
45382;SDS011;42455;51.660;5.824;2022-11-11T20:06:16;10.0;;;9.0;;
45382;SDS011;42455;51.660;5.824;2022-11-11T20:11:12;12.0;;;9.0;;
45382;SDS011;42455;51.660;5.824;2022-11-11T20:16:18;9.0;;;7.0;;
45382;SDS011;42455;51.660;5.824;2022-11-11T20:21:25;9.0;;;7.0;;
45382;SDS011;42455;51.660;5.824;2022-11-11T20:26:31;10.0;;;7.5;;
45382;SDS011;42455;51.660;5.824;2022-11-11T20:31:37;9.0;;;7.5;;
45382;SDS011;42455;51.660;5.824;2022-11-11T20:36:43;13.0;;;11.0;;
45382;SDS011;42455;51.660;5.824;2022-11-11T20:41:50;12.0;;;9.0;;
45382;SDS011;42455;51.660;5.824;2022-11-11T20:46:56;11.0;;;10.0;;
45382;SDS011;42455;51.660;5.824;2022-11-11T20:52:02;9.0;;;8.0;;
45382;SDS011;42455;51.660;5.824;2022-11-11T20:57:08;10.0;;;8.0;;
45382;SDS011;42455;51.660;5.824;2022-11-11T21:02:14;12.0;;;8.0;;
45382;SDS011;42455;51.660;5.824;2022-11-11T21:07:21;11.0;;;9.0;;
45382;SDS011;42455;51.660;5.824;2022-11-11T21:12:27;9.0;;;8.0;;
45382;SDS011;42455;51.660;5.824;2022-11-11T21:17:33;10.5;;;9.0;;
45382;SDS011;42455;51.660;5.824;2022-11-11T21:22:38;10.0;;;9.0;;
45382;SDS011;42455;51.660;5.824;2022-11-11T21:27:44;10.0;;;9.0;;
45382;SDS011;42455;51.660;5.824;2022-11-11T21:32:50;9.0;;;8.0;;
45382;SDS011;42455;51.660;5.824;2022-11-11T21:37:56;12.0;;;10.0;;
45382;SDS011;42455;51.660;5.824;2022-11-11T21:43:02;11.0;;;10.0;;
45382;SDS011;42455;51.660;5.824;2022-11-11T21:48:08;10.0;;;9.0;;
45382;SDS011;42455;51.660;5.824;2022-11-11T21:53:14;10.0;;;9.0;;
45382;SDS011;42455;51.660;5.824;2022-11-11T21:58:21;10.0;;;9.0;;
45382;SDS011;42455;51.660;5.824;2022-11-11T22:03:27;12.0;;;10.0;;
45382;SDS011;42455;51.660;5.824;2022-11-11T22:13:39;11.0;;;10.0;;
45382;SDS011;42455;51.660;5.824;2022-11-11T22:18:46;11.0;;;10.0;;
45382;SDS011;42455;51.660;5.824;2022-11-11T22:23:55;12.0;;;11.0;;
45382;SDS011;42455;51.660;5.824;2022-11-11T22:28:58;11.0;;;10.0;;
45382;SDS011;42455;51.660;5.824;2022-11-11T22:34:05;14.0;;;13.0;;
45382;SDS011;42455;51.660;5.824;2022-11-11T22:39:10;13.0;;;11.0;;
45382;SDS011;42455;51.660;5.824;2022-11-11T22:44:17;14.0;;;12.0;;
45382;SDS011;42455;51.660;5.824;2022-11-11T22:49:23;13.0;;;11.0;;
45382;SDS011;42455;51.660;5.824;2022-11-11T22:54:29;14.0;;;13.0;;
45382;SDS011;42455;51.660;5.824;2022-11-11T22:59:35;14.5;;;13.0;;
45382;SDS011;42455;51.660;5.824;2022-11-11T23:04:41;14.0;;;12.5;;
45382;SDS011;42455;51.660;5.824;2022-11-11T23:09:48;16.0;;;14.0;;
45382;SDS011;42455;51.660;5.824;2022-11-11T23:14:54;15.0;;;13.0;;
45382;SDS011;42455;51.660;5.824;2022-11-11T23:20:00;13.0;;;12.0;;
45382;SDS011;42455;51.660;5.824;2022-11-11T23:25:06;12.0;;;10.0;;
45382;SDS011;42455;51.660;5.824;2022-11-11T23:30:11;14.0;;;12.0;;
45382;SDS011;42455;51.660;5.824;2022-11-11T23:35:17;16.0;;;15.0;;
45382;SDS011;42455;51.660;5.824;2022-11-11T23:40:23;17.0;;;15.0;;
45382;SDS011;42455;51.660;5.824;2022-11-11T23:45:29;15.0;;;13.0;;
45382;SDS011;42455;51.660;5.824;2022-11-11T23:50:35;16.0;;;14.0;;
45382;SDS011;42455;51.660;5.824;2022-11-11T23:55:42;15.0;;;13.0;;
